YAJUU VNRC-VNLK
Flight info
| Callsign | YAJUU |
|---|---|
| Flight time | N/A |
| Altitude | 10000 |
| Route | VFR |
| Aircraft | B350/L-DOV/C |
Departure
| Time | N/A |
|---|---|
| Airport | Ramechhap Airport (VNRC) |
Arrival
| Time | 2025-02-18 08:10 |
|---|---|
| Airport | Tenzing-Hillary Airport (VNLK) |
| Time | Latitude | Longitude | Altitude | Speed | Heading |
|---|---|---|---|---|---|
| 2025-02-18 08:06 | 27.71303 | 86.78016 | 16553 ft | 71 kts | 240° |
| 2025-02-18 08:06 | 27.70784 | 86.76637 | 16091 ft | 125 kts | 249° |
| 2025-02-18 08:07 | 27.69180 | 86.73334 | 11431 ft | 184 kts | 217° |
| 2025-02-18 08:07 | 27.67951 | 86.72368 | 9636 ft | 203 kts | 214° |
| 2025-02-18 08:08 | 27.66815 | 86.70116 | 9867 ft | 146 kts | 7° |
| 2025-02-18 08:08 | 27.68054 | 86.71728 | 9128 ft | 121 kts | 58° |
| 2025-02-18 08:09 | 27.68796 | 86.73186 | 9505 ft | 0 kts | 94° |
| 2025-02-18 08:10 | 27.68799 | 86.73194 | 9506 ft | 2 kts | 43° |
| 2025-02-18 08:11 | 27.68773 | 86.73166 | 9505 ft | 0 kts | 329° |
| 2025-02-18 08:12 | 27.68577 | 86.72747 | 9314 ft | 111 kts | 240° |
| 2025-02-18 08:12 | 27.67390 | 86.71087 | 9710 ft | 156 kts | 209° |
| 2025-02-18 08:13 | 27.66121 | 86.69536 | 9217 ft | 189 kts | 348° |
| 2025-02-18 08:13 | 27.67036 | 86.70584 | 9035 ft | 197 kts | 42° |
| 2025-02-18 08:13 | 27.66808 | 86.70906 | 8573 ft | 207 kts | 242° |
| 2025-02-18 08:14 | 27.66259 | 86.69883 | 9030 ft | 177 kts | 25° |
| 2025-02-18 08:15 | 27.69520 | 86.70802 | 10029 ft | 160 kts | 359° |
| 2025-02-18 08:15 | 27.71894 | 86.70985 | 10449 ft | 166 kts | 19° |
| 2025-02-18 08:16 | 27.71019 | 86.71121 | 10041 ft | 197 kts | 206° |
| 2025-02-18 08:16 | 27.69801 | 86.70519 | 10091 ft | 186 kts | 216° |
| 2025-02-18 08:16 | 27.68279 | 86.71761 | 9509 ft | 146 kts | 75° |
| 2025-02-18 08:17 | 27.68789 | 86.73179 | 9505 ft | 3 kts | 43° |
| 2025-02-18 08:17 | 27.68796 | 86.73181 | 9505 ft | 0 kts | 353° |
| 2025-02-18 08:18 | 27.68804 | 86.73173 | 9504 ft | 1 kts | 271° |
| 2025-02-18 08:19 | 27.68803 | 86.73167 | 9504 ft | 2 kts | 288° |
| 2025-02-18 08:19 | 27.68658 | 86.72919 | 9390 ft | 88 kts | 236° |
| 2025-02-18 08:19 | 27.68102 | 86.72258 | 9443 ft | 137 kts | 219° |
| 2025-02-18 08:20 | 27.66259 | 86.71094 | 9700 ft | 174 kts | 206° |
| 2025-02-18 08:20 | 27.63595 | 86.70160 | 8870 ft | 172 kts | 208° |
| 2025-02-18 08:21 | 27.63433 | 86.67457 | 9565 ft | 134 kts | 97° |
| 2025-02-18 08:21 | 27.64305 | 86.68210 | 9411 ft | 106 kts | 41° |
| 2025-02-18 08:22 | 27.66705 | 86.70788 | 6911 ft | 196 kts | 35° |
| 2025-02-18 08:23 | 27.68097 | 86.72030 | 8738 ft | 85 kts | 28° |
| 2025-02-18 08:23 | 27.68251 | 86.72952 | 8975 ft | 42 kts | 131° |
| 2025-02-18 08:23 | 27.68236 | 86.73024 | 9002 ft | 47 kts | 146° |